Time;durP1;ratioP1;P1;durP2;ratioP2;P2;SDS_P1;SDS_P2;PMS_P1;PMS_P2;Temp;Humidity;BMP_temperature;BMP_pressure;BME280_temperature;BME280_humidity;BME280_pressure;Samples;Min_cycle;Max_cycle;Signal;HPM_P1;HPM_P2
2022/08/07 00:01:03;;;;;;;;;;;;;;;29.08;39.64;100800.16;5073754;28;1914;-35
2022/08/07 00:03:49;;;;;;;;;;;;;;;29.02;40.75;100792.72;5074237;28;2184;-34
2022/08/07 00:06:16;;;;;;;;;;;;;;;29.01;40.05;100801.75;5073655;28;1006;-35
2022/08/07 00:08:54;;;;;;;;;;;;;;;28.98;40.28;100802.91;5073793;28;1345;-35
2022/08/07 00:11:21;;;;;;;;;;;;;;;28.93;39.22;100799.00;5072510;28;1022;-35
2022/08/07 00:13:58;;;;;;;;;;;;;;;28.90;38.88;100799.31;5074135;28;1409;-40
2022/08/07 00:16:25;;;;;;;;;;;;;;;28.81;39.01;100792.19;5073745;28;1079;-35
2022/08/07 00:18:53;;;;;;;;;;;;;;;28.79;39.11;100791.50;5072413;28;1233;-35
2022/08/07 00:21:21;;;;;;;;;;;;;;;28.68;39.04;100779.13;5073330;28;1914;-35
2022/08/07 00:24:07;;;;;;;;;;;;;;;28.66;38.84;100783.81;5073809;28;2798;-35
2022/08/07 00:26:34;;;;;;;;;;;;;;;28.66;38.91;100790.03;5073327;28;1095;-35
2022/08/07 00:29:24;;;;;;;;;;;;;;;28.63;38.65;100790.28;5074063;28;2180;-36
2022/08/07 00:31:58;;;;;;;;;;;;;;;28.62;38.79;100791.28;5073577;28;1687;-36
2022/08/07 00:34:25;;;;;;;;;;;;;;;28.52;38.50;100784.25;5073635;28;1569;-36
2022/08/07 00:36:54;;;;;;;;;;;;;;;28.60;39.11;100782.56;5073256;28;1272;-33
2022/08/07 00:39:21;;;;;;;;;;;;;;;28.69;38.93;100779.00;5073608;28;1040;-35
2022/08/07 00:41:50;;;;;;;;;;;;;;;28.68;39.02;100768.41;5072260;28;1914;-35
2022/08/07 00:44:26;;;;;;;;;;;;;;;28.73;38.88;100774.16;5072910;28;1551;-35
2022/08/07 00:46:54;;;;;;;;;;;;;;;28.68;39.44;100769.25;5072998;28;1674;-35
2022/08/07 00:49:21;;;;;;;;;;;;;;;28.64;39.16;100773.22;5073029;28;1061;-35
2022/08/07 00:52:08;;;;;;;;;;;;;;;28.66;39.87;100765.91;5073088;28;1318;-35
2022/08/07 00:54:35;;;;;;;;;;;;;;;28.61;39.58;100752.06;5073131;28;1287;-35
2022/08/07 00:57:06;;;;;;;;;;;;;;;28.58;39.65;100749.69;5071690;28;1405;-34
2022/08/07 00:59:35;;;;;;;;;;;;;;;28.55;39.87;100743.78;5072663;28;1910;-35
2022/08/07 01:02:03;;;;;;;;;;;;;;;28.63;39.73;100747.41;5072860;28;1296;-35
2022/08/07 01:04:39;;;;;;;;;;;;;;;28.46;40.11;100742.00;5052726;28;1126;-35
2022/08/07 01:07:09;;;;;;;;;;;;;;;28.48;40.20;100743.56;5056804;28;1392;-35
2022/08/07 01:09:36;;;;;;;;;;;;;;;28.55;40.04;100741.94;5070913;28;1034;-35
2022/08/07 01:12:23;;;;;;;;;;;;;;;28.55;40.04;100739.25;5070379;28;2269;-35
2022/08/07 01:14:58;;;;;;;;;;;;;;;28.56;40.07;100740.97;5071542;28;1108;-35
2022/08/07 01:17:29;;;;;;;;;;;;;;;28.58;40.01;100741.63;5071316;28;1306;-34
2022/08/07 01:20:00;;;;;;;;;;;;;;;28.60;40.24;100734.31;5071573;28;1922;-35
2022/08/07 01:22:29;;;;;;;;;;;;;;;28.42;40.67;100743.31;5070609;28;1376;-36
2022/08/07 01:24:57;;;;;;;;;;;;;;;28.41;40.76;100741.63;5071175;28;996;-36
2022/08/07 01:27:24;;;;;;;;;;;;;;;28.50;41.47;100743.38;5071268;28;1307;-35
2022/08/07 01:29:58;;;;;;;;;;;;;;;28.45;41.97;100751.06;5071617;28;1080;-35
2022/08/07 01:32:26;;;;;;;;;;;;;;;28.38;41.92;100740.09;5070920;28;1307;-35
2022/08/07 01:34:54;;;;;;;;;;;;;;;28.42;42.52;100733.44;5070531;28;1358;-35
2022/08/07 01:37:22;;;;;;;;;;;;;;;28.40;43.02;100734.56;5072504;28;1263;-36
2022/08/07 01:39:49;;;;;;;;;;;;;;;28.38;43.84;100729.38;5073159;28;1987;-35
2022/08/07 01:42:16;;;;;;;;;;;;;;;28.38;44.08;100732.03;5072862;28;1205;-36
2022/08/07 01:45:03;;;;;;;;;;;;;;;28.34;44.16;100722.63;5072498;28;2431;-36
2022/08/07 01:47:35;;;;;;;;;;;;;;;28.33;44.30;100722.78;5072916;28;1300;-35
2022/08/07 01:50:22;;;;;;;;;;;;;;;28.33;44.17;100723.59;5071431;28;2755;-34
2022/08/07 01:52:56;;;;;;;;;;;;;;;28.20;44.63;100726.66;5072992;28;1368;-35
2022/08/07 01:55:28;;;;;;;;;;;;;;;28.20;44.81;100732.00;5072986;28;1107;-35
2022/08/07 01:58:01;;;;;;;;;;;;;;;28.22;44.89;100739.88;5072801;28;1284;-36
2022/08/07 02:00:54;;;;;;;;;;;;;;;28.24;44.95;100737.88;5071044;28;2063;-37
2022/08/07 02:03:42;;;;;;;;;;;;;;;28.28;44.85;100733.94;5058912;28;2014;-35
2022/08/07 02:06:18;;;;;;;;;;;;;;;28.31;45.13;100738.13;5067065;28;993;-36
2022/08/07 02:08:59;;;;;;;;;;;;;;;28.27;44.96;100734.91;5052511;28;1743;-36
2022/08/07 02:11:30;;;;;;;;;;;;;;;28.16;45.41;100735.13;5052493;28;1033;-35
2022/08/07 02:14:17;;;;;;;;;;;;;;;27.99;46.04;100741.22;5052696;28;2199;-36
2022/08/07 02:17:04;;;;;;;;;;;;;;;28.00;45.98;100737.53;5051379;28;2096;-35
2022/08/07 02:19:33;;;;;;;;;;;;;;;27.90;46.27;100734.09;5052701;28;1151;-36
2022/08/07 02:22:22;;;;;;;;;;;;;;;27.88;46.54;100730.69;5052493;28;2241;-36
2022/08/07 02:24:52;;;;;;;;;;;;;;;28.10;45.76;100728.53;5052713;28;1156;-35
2022/08/07 02:27:21;;;;;;;;;;;;;;;28.12;44.71;100718.50;5053097;28;1421;-34
2022/08/07 02:29:49;;;;;;;;;;;;;;;28.00;44.87;100713.44;5060869;28;1155;-35
2022/08/07 02:32:21;;;;;;;;;;;;;;;27.90;44.92;100718.03;5052115;28;1288;-34
2022/08/07 02:34:49;;;;;;;;;;;;;;;27.91;44.71;100725.03;5055218;28;2060;-34
2022/08/07 02:37:17;;;;;;;;;;;;;;;28.02;44.39;100722.19;5064242;28;1262;-35
2022/08/07 02:39:45;;;;;;;;;;;;;;;28.02;42.33;100727.56;5076487;28;1047;-36
2022/08/07 02:42:32;;;;;;;;;;;;;;;27.99;43.26;100735.88;5075440;28;2201;-36
2022/08/07 02:45:00;;;;;;;;;;;;;;;28.06;41.37;100735.16;5067258;28;1169;-36
2022/08/07 02:47:47;;;;;;;;;;;;;;;28.02;40.66;100738.25;5069075;28;2790;-35
2022/08/07 02:50:15;;;;;;;;;;;;;;;27.73;41.15;100740.19;5055953;28;1256;-35
2022/08/07 02:52:51;;;;;;;;;;;;;;;27.62;41.04;100739.38;5055791;28;1197;-34
2022/08/07 02:55:20;;;;;;;;;;;;;;;27.63;41.64;100726.84;5056207;28;1189;-35
2022/08/07 02:58:09;;;;;;;;;;;;;;;27.67;41.13;100726.41;5055888;28;2034;-36
2022/08/07 03:00:37;;;;;;;;;;;;;;;27.64;41.06;100721.34;5055945;28;1975;-36
2022/08/07 03:03:06;;;;;;;;;;;;;;;27.61;41.31;100713.59;5055916;28;1224;-36
2022/08/07 03:05:39;;;;;;;;;;;;;;;27.71;41.15;100716.25;5055935;28;1017;-35
2022/08/07 03:08:07;;;;;;;;;;;;;;;27.79;40.95;100721.72;5055740;28;1217;-36
2022/08/07 03:10:36;;;;;;;;;;;;;;;27.75;40.37;100722.16;5056199;28;1076;-36
2022/08/07 03:13:15;;;;;;;;;;;;;;;27.65;40.41;100707.00;5055691;28;1300;-36
2022/08/07 03:15:44;;;;;;;;;;;;;;;27.77;40.37;100715.69;5070807;28;1723;-36
2022/08/07 03:18:23;;;;;;;;;;;;;;;27.82;40.04;100725.94;5055577;28;1404;-36
2022/08/07 03:21:01;;;;;;;;;;;;;;;27.80;40.36;100722.56;5055690;28;1977;-36
2022/08/07 03:23:29;;;;;;;;;;;;;;;27.85;39.88;100715.78;5055535;28;1299;-36
2022/08/07 03:26:18;;;;;;;;;;;;;;;27.95;39.16;100721.94;5055514;28;2150;-36
2022/08/07 03:28:49;;;;;;;;;;;;;;;28.01;38.55;100715.16;5070443;28;1292;-35
2022/08/07 03:31:17;;;;;;;;;;;;;;;27.93;39.43;100707.03;5055425;28;990;-35
2022/08/07 03:33:53;;;;;;;;;;;;;;;28.02;38.47;100712.34;5055393;28;1392;-36
2022/08/07 03:36:23;;;;;;;;;;;;;;;27.97;39.36;100708.38;5055317;28;894;-34
2022/08/07 03:38:53;;;;;;;;;;;;;;;28.00;38.94;100718.81;5055301;28;1209;-35
2022/08/07 03:41:20;;;;;;;;;;;;;;;28.02;38.71;100725.72;5054321;28;1979;-36
2022/08/07 03:44:07;;;;;;;;;;;;;;;28.03;38.33;100724.72;5055221;28;2094;-36
2022/08/07 03:46:36;;;;;;;;;;;;;;;28.03;38.33;100727.38;5054988;28;1001;-35
2022/08/07 03:49:23;;;;;;;;;;;;;;;28.06;38.54;100731.63;5055232;28;2398;-36
2022/08/07 03:51:50;;;;;;;;;;;;;;;28.04;38.49;100739.84;5055050;28;1228;-35
2022/08/07 03:54:27;;;;;;;;;;;;;;;27.95;38.54;100743.34;5068819;28;1068;-35
2022/08/07 03:57:15;;;;;;;;;;;;;;;27.86;39.02;100744.25;5054771;28;1942;-35
2022/08/07 04:00:02;;;;;;;;;;;;;;;27.89;38.67;100743.09;5055762;28;2080;-36
2022/08/07 04:02:29;;;;;;;;;;;;;;;27.81;38.69;100748.34;5054707;28;1992;-36
2022/08/07 04:04:57;;;;;;;;;;;;;;;27.85;38.73;100741.69;5054594;28;1045;-36
2022/08/07 04:07:24;;;;;;;;;;;;;;;27.78;38.83;100746.81;5054537;28;1262;-36
2022/08/07 04:10:02;;;;;;;;;;;;;;;27.77;38.69;100746.94;5055398;28;1306;-35
2022/08/07 04:12:29;;;;;;;;;;;;;;;27.71;38.89;100753.72;5054680;28;1245;-35
2022/08/07 04:14:57;;;;;;;;;;;;;;;27.72;39.01;100755.44;5054883;28;1111;-36
2022/08/07 04:17:25;;;;;;;;;;;;;;;27.65;39.01;100757.81;5069368;28;1322;-35
2022/08/07 04:20:12;;;;;;;;;;;;;;;27.74;39.08;100765.97;5055080;28;2268;-35
2022/08/07 04:22:40;;;;;;;;;;;;;;;27.75;39.21;100768.50;5054260;28;1972;-35
2022/08/07 04:25:20;;;;;;;;;;;;;;;27.65;39.38;100771.22;5054660;28;1089;-35
2022/08/07 04:27:49;;;;;;;;;;;;;;;27.67;39.39;100777.25;5054489;28;1221;-36
2022/08/07 04:30:25;;;;;;;;;;;;;;;27.72;39.75;100774.16;5054628;28;1049;-35
2022/08/07 04:33:10;;;;;;;;;;;;;;;27.72;39.91;100773.31;5054297;28;1289;-36
2022/08/07 04:35:42;;;;;;;;;;;;;;;27.70;40.79;100770.75;5054695;28;1120;-36
2022/08/07 04:38:15;;;;;;;;;;;;;;;27.60;41.76;100770.78;5054069;28;1284;-36
2022/08/07 04:40:43;;;;;;;;;;;;;;;27.59;42.04;100777.13;5053836;28;1977;-34
2022/08/07 04:43:31;;;;;;;;;;;;;;;27.57;42.83;100784.44;5054161;28;1343;-36
2022/08/07 04:46:21;;;;;;;;;;;;;;;27.57;42.68;100787.13;5056628;28;2433;-36
2022/08/07 04:49:04;;;;;;;;;;;;;;;27.65;42.75;100783.75;5053993;28;1332;-36
2022/08/07 04:51:59;;;;;;;;;;;;;;;27.65;42.70;100784.59;5073879;28;1209;-36
2022/08/07 04:54:25;;;;;;;;;;;;;;;27.60;42.95;100784.16;5073742;28;1065;-35
2022/08/07 04:56:55;;;;;;;;;;;;;;;27.60;43.06;100786.84;5069321;28;1256;-36
2022/08/07 04:59:50;;;;;;;;;;;;;;;27.60;43.08;100788.69;5054439;28;2117;-36
2022/08/07 05:02:49;;;;;;;;;;;;;;;27.66;43.99;100786.25;5053569;28;2550;-37
2022/08/07 05:05:35;;;;;;;;;;;;;;;27.72;44.95;100786.69;5053924;28;1283;-35
2022/08/07 05:08:40;;;;;;;;;;;;;;;27.70;45.40;100794.84;5053603;28;2319;-35
2022/08/07 05:11:55;;;;;;;;;;;;;;;27.66;45.23;100783.56;5053651;28;1112;-34
2022/08/07 05:14:32;;;;;;;;;;;;;;;27.65;45.14;100792.63;5046660;28;1191;-36
2022/08/07 05:17:20;;;;;;;;;;;;;;;27.63;46.05;100796.44;5053323;28;2163;-36
2022/08/07 05:20:08;;;;;;;;;;;;;;;27.72;45.80;100800.91;5053402;28;2230;-35
2022/08/07 05:22:37;;;;;;;;;;;;;;;27.74;47.17;100803.44;5053322;28;1989;-34
2022/08/07 05:25:05;;;;;;;;;;;;;;;27.73;47.18;100807.09;5068643;28;1180;-36
2022/08/07 05:27:37;;;;;;;;;;;;;;;27.73;47.78;100812.44;5053200;28;1296;-36
2022/08/07 05:30:24;;;;;;;;;;;;;;;27.65;47.09;100813.19;5053310;28;2026;-36
2022/08/07 05:32:59;;;;;;;;;;;;;;;27.72;47.07;100813.44;5053355;28;1343;-34
2022/08/07 05:35:30;;;;;;;;;;;;;;;27.67;46.41;100814.72;5059596;28;1975;-35
2022/08/07 05:38:07;;;;;;;;;;;;;;;27.72;46.68;100813.44;5053012;28;1304;-35
2022/08/07 05:40:38;;;;;;;;;;;;;;;27.67;47.61;100819.22;5053183;28;873;-36
2022/08/07 05:43:17;;;;;;;;;;;;;;;27.66;47.76;100826.41;5067839;28;1299;-35
2022/08/07 05:45:45;;;;;;;;;;;;;;;27.68;48.41;100823.59;5072846;28;1092;-35
2022/08/07 05:48:13;;;;;;;;;;;;;;;27.64;48.87;100825.72;5072207;28;1223;-36
2022/08/07 05:50:42;;;;;;;;;;;;;;;27.71;49.19;100822.47;5071608;28;1044;-36
2022/08/07 05:53:09;;;;;;;;;;;;;;;27.74;49.85;100832.88;5072818;28;1294;-35
2022/08/07 05:55:56;;;;;;;;;;;;;;;27.79;49.90;100819.91;5072956;28;2167;-34
2022/08/07 05:58:31;;;;;;;;;;;;;;;27.85;49.95;100822.00;5072714;28;1319;-34
2022/08/07 06:01:03;;;;;;;;;;;;;;;27.89;49.77;100834.13;5072775;28;1993;-35
2022/08/07 06:03:31;;;;;;;;;;;;;;;27.93;49.77;100830.16;5073329;28;1227;-35
2022/08/07 06:06:19;;;;;;;;;;;;;;;27.94;49.50;100834.50;5073197;28;2395;-36
2022/08/07 06:08:46;;;;;;;;;;;;;;;27.96;49.58;100833.41;5072392;28;1275;-36
2022/08/07 06:11:16;;;;;;;;;;;;;;;27.99;49.47;100840.28;5072941;28;1037;-36
2022/08/07 06:13:46;;;;;;;;;;;;;;;27.98;49.33;100843.94;5073116;28;1213;-35
2022/08/07 06:16:34;;;;;;;;;;;;;;;27.99;49.34;100845.66;5072864;28;2139;-35
2022/08/07 06:19:01;;;;;;;;;;;;;;;28.00;49.23;100845.50;5068164;28;1852;-35
2022/08/07 06:21:32;;;;;;;;;;;;;;;28.03;48.90;100847.03;5058195;28;1979;-35
2022/08/07 06:24:18;;;;;;;;;;;;;;;28.01;49.38;100847.19;5062035;28;2265;-36
2022/08/07 06:27:05;;;;;;;;;;;;;;;27.92;49.80;100855.25;5052716;28;2141;-36
2022/08/07 06:29:33;;;;;;;;;;;;;;;28.00;49.76;100847.31;5052228;28;1087;-35
2022/08/07 06:32:04;;;;;;;;;;;;;;;27.95;50.48;100849.59;5052415;28;1248;-35
2022/08/07 06:34:31;;;;;;;;;;;;;;;28.00;50.54;100853.53;5052304;28;1316;-36
2022/08/07 06:36:58;;;;;;;;;;;;;;;27.97;50.72;100855.63;5052068;28;1287;-35
2022/08/07 06:39:28;;;;;;;;;;;;;;;28.00;51.53;100868.75;5052667;28;1158;-36
2022/08/07 06:42:17;;;;;;;;;;;;;;;27.99;51.59;100867.06;5052178;28;2441;-36
2022/08/07 06:44:46;;;;;;;;;;;;;;;28.06;51.59;100873.56;5052731;28;1144;-36
2022/08/07 06:47:17;;;;;;;;;;;;;;;28.06;52.18;100871.72;5064139;28;1939;-37
2022/08/07 06:49:43;;;;;;;;;;;;;;;28.05;52.27;100877.25;5072804;28;1046;-36
2022/08/07 06:52:18;;;;;;;;;;;;;;;28.17;52.29;100881.44;5056849;28;1288;-36
2022/08/07 06:55:01;;;;;;;;;;;;;;;28.21;52.10;100878.31;5056860;28;1438;-35
2022/08/07 06:57:49;;;;;;;;;;;;;;;28.22;52.37;100873.78;5069429;28;2094;-36
2022/08/07 07:00:22;;;;;;;;;;;;;;;28.25;52.40;100876.19;5071257;28;1089;-35
2022/08/07 07:02:50;;;;;;;;;;;;;;;28.30;52.38;100887.28;5071838;28;1918;-35
2022/08/07 07:05:23;;;;;;;;;;;;;;;28.33;52.53;100889.69;5072170;28;1046;-35
2022/08/07 07:08:11;;;;;;;;;;;;;;;28.31;53.04;100889.00;5072083;28;2262;-35
2022/08/07 07:10:49;;;;;;;;;;;;;;;28.35;52.87;100892.22;5072002;28;1101;-36
2022/08/07 07:13:33;;;;;;;;;;;;;;;28.40;53.27;100892.63;5071835;28;1330;-36
2022/08/07 07:16:22;;;;;;;;;;;;;;;28.42;53.59;100896.88;5071359;28;1764;-35
2022/08/07 07:18:58;;;;;;;;;;;;;;;28.43;53.18;100892.34;5071871;28;1436;-35
2022/08/07 07:21:33;;;;;;;;;;;;;;;28.46;53.73;100887.53;5075370;28;1918;-35
2022/08/07 07:24:20;;;;;;;;;;;;;;;28.44;53.87;100896.72;5074563;28;2272;-35
2022/08/07 07:26:48;;;;;;;;;;;;;;;28.50;53.46;100890.75;5075278;28;1240;-36
2022/08/07 07:29:20;;;;;;;;;;;;;;;28.55;53.60;100899.19;5075478;28;1013;-36
2022/08/07 07:32:08;;;;;;;;;;;;;;;28.55;52.88;100897.38;5075462;28;2113;-36
2022/08/07 07:34:37;;;;;;;;;;;;;;;28.60;52.80;100904.97;5075034;28;1447;-36
2022/08/07 07:37:06;;;;;;;;;;;;;;;28.62;53.22;100908.34;5075437;28;1402;-36
2022/08/07 07:39:57;;;;;;;;;;;;;;;28.62;52.83;100914.56;5075426;28;2048;-36
2022/08/07 07:42:25;;;;;;;;;;;;;;;28.64;52.60;100911.72;5074811;28;1909;-36
2022/08/07 07:45:00;;;;;;;;;;;;;;;28.70;50.38;100912.00;5074924;28;1041;-36
2022/08/07 07:47:28;;;;;;;;;;;;;;;28.72;51.43;100910.03;5074858;28;1352;-35
2022/08/07 07:49:55;;;;;;;;;;;;;;;28.80;51.06;100913.78;5074389;28;1112;-35
2022/08/07 07:52:43;;;;;;;;;;;;;;;28.85;50.63;100909.66;5074926;28;2159;-35
2022/08/07 07:55:13;;;;;;;;;;;;;;;28.75;50.80;100908.91;5075368;28;1242;-35
2022/08/07 07:57:41;;;;;;;;;;;;;;;28.87;50.47;100904.16;5074819;28;1225;-35
2022/08/07 08:00:19;;;;;;;;;;;;;;;29.01;50.06;100909.88;5074910;28;1040;-35
2022/08/07 08:03:02;;;;;;;;;;;;;;;29.04;48.23;100906.03;5074615;28;1918;-35
2022/08/07 08:05:37;;;;;;;;;;;;;;;29.03;46.57;100907.88;5074630;28;1047;-35
2022/08/07 08:08:24;;;;;;;;;;;;;;;29.13;47.41;100908.66;5074608;28;1393;-35
2022/08/07 08:11:06;;;;;;;;;;;;;;;29.18;48.04;100921.66;5074617;28;1072;-36
2022/08/07 08:13:35;;;;;;;;;;;;;;;29.25;46.86;100917.38;5074206;28;1298;-35
2022/08/07 08:16:21;;;;;;;;;;;;;;;29.31;46.22;100916.75;5065983;28;1294;-37
2022/08/07 08:18:53;;;;;;;;;;;;;;;29.26;43.45;100908.34;5073347;28;1404;-34
2022/08/07 08:27:25;;;;;;;;;;;;;;;29.38;43.92;100912.50;5071601;28;1275;-32
2022/08/07 08:30:06;;;;;;;;;;;;;;;29.37;44.18;100916.16;5069684;28;1294;-34
2022/08/07 08:32:42;;;;;;;;;;;;;;;29.26;43.89;100913.72;5063869;28;1323;-33
2022/08/07 08:35:17;;;;;;;;;;;;;;;29.25;44.18;100906.63;5064865;28;1357;-35
2022/08/07 08:37:45;;;;;;;;;;;;;;;29.22;44.75;100913.13;5072751;28;1374;-41
2022/08/07 08:40:36;;;;;;;;;;;;;;;29.31;44.95;100907.88;5068696;28;1209;-42
2022/08/07 08:43:03;;;;;;;;;;;;;;;29.27;45.52;100912.72;5073198;28;1913;-40
2022/08/07 08:45:37;;;;;;;;;;;;;;;29.32;44.69;100915.78;5070223;28;1104;-40
2022/08/07 08:48:29;;;;;;;;;;;;;;;29.28;45.61;100915.22;5073439;28;1394;-39
2022/08/07 08:51:06;;;;;;;;;;;;;;;29.31;45.87;100916.75;5073739;28;1086;-42
2022/08/07 08:53:55;;;;;;;;;;;;;;;29.36;44.54;100910.97;5073731;28;1398;-38
2022/08/07 08:56:26;;;;;;;;;;;;;;;29.37;42.78;100915.31;5073915;28;1033;-41
2022/08/07 08:58:59;;;;;;;;;;;;;;;29.45;41.86;100910.91;5073504;28;1276;-40
2022/08/07 09:01:57;;;;;;;;;;;;;;;29.57;40.19;100912.34;5073674;28;1976;-42
2022/08/07 09:04:32;;;;;;;;;;;;;;;29.56;42.09;100913.34;5100737;28;1155;-39
2022/08/07 09:07:10;;;;;;;;;;;;;;;29.55;42.59;100908.94;5053809;28;1612;-43
2022/08/07 09:09:55;;;;;;;;;;;;;;;29.59;41.61;100914.88;5059659;28;1126;-41
2022/08/07 09:12:28;;;;;;;;;;;;;;;29.56;41.94;100916.03;5072838;28;1271;-42
2022/08/07 09:15:13;;;;;;;;;;;;;;;29.55;41.39;100917.00;5072819;28;1030;-43
2022/08/07 09:17:59;;;;;;;;;;;;;;;29.57;40.73;100919.56;5073379;28;1995;-44
2022/08/07 09:20:38;;;;;;;;;;;;;;;29.58;41.08;100923.91;5072984;28;1035;-40
2022/08/07 09:23:24;;;;;;;;;;;;;;;29.54;41.97;100915.34;5104759;28;1905;-42
2022/08/07 09:26:17;;;;;;;;;;;;;;;29.65;40.50;100915.09;5080232;28;1606;-44
2022/08/07 09:28:52;;;;;;;;;;;;;;;29.52;41.96;100920.00;5062798;28;1645;-46
2022/08/07 09:31:50;;;;;;;;;;;;;;;29.76;40.04;100917.53;5063703;28;2522;-43
2022/08/07 09:34:21;;;;;;;;;;;;;;;29.68;41.42;100925.53;5087414;28;1340;-44
2022/08/07 09:37:03;;;;;;;;;;;;;;;29.59;41.74;100915.72;5051493;28;1308;-45
2022/08/07 09:39:30;;;;;;;;;;;;;;;29.71;41.15;100919.00;5057210;28;1544;-39
2022/08/07 09:42:39;;;;;;;;;;;;;;;29.78;39.93;100920.09;5068373;28;1981;-45
2022/08/07 09:45:15;;;;;;;;;;;;;;;29.83;40.16;100915.09;5071006;28;1141;-44
2022/08/07 09:48:22;;;;;;;;;;;;;;;29.62;41.30;100926.16;5069479;28;2249;-44
2022/08/07 09:51:11;;;;;;;;;;;;;;;29.58;42.40;100919.38;5067693;28;1715;-43
2022/08/07 09:53:59;;;;;;;;;;;;;;;29.65;42.47;100925.84;5098372;28;2024;-46
2022/08/07 09:56:46;;;;;;;;;;;;;;;29.62;42.42;100923.47;5071579;28;1041;-44
2022/08/07 09:59:23;;;;;;;;;;;;;;;29.59;42.26;100926.44;5071534;28;1141;-44
2022/08/07 10:02:33;;;;;;;;;;;;;;;29.63;41.86;100922.47;5070810;28;1918;-44
2022/08/07 10:05:09;;;;;;;;;;;;;;;29.67;41.35;100921.16;5065192;28;1234;-45
2022/08/07 10:07:48;;;;;;;;;;;;;;;29.83;39.52;100925.00;5071377;28;1318;-45
2022/08/07 10:10:35;;;;;;;;;;;;;;;29.97;39.37;100921.78;5067462;28;1144;-45
2022/08/07 10:13:25;;;;;;;;;;;;;;;29.92;40.46;100916.00;5067978;28;2141;-45
2022/08/07 10:16:34;;;;;;;;;;;;;;;29.85;40.36;100917.66;5067503;28;2082;-44
2022/08/07 10:19:07;;;;;;;;;;;;;;;29.95;40.32;100910.31;5068232;28;1403;-45
2022/08/07 10:22:02;;;;;;;;;;;;;;;29.90;39.99;100909.97;5071293;28;1009;-46
2022/08/07 10:25:00;;;;;;;;;;;;;;;29.87;40.77;100915.66;5071175;28;1332;-45
2022/08/07 10:27:30;;;;;;;;;;;;;;;29.85;40.93;100914.97;5070918;28;1320;-44
2022/08/07 10:30:17;;;;;;;;;;;;;;;29.84;41.22;100924.88;5071199;28;1089;-44
2022/08/07 10:32:54;;;;;;;;;;;;;;;29.77;41.13;100919.22;5071041;28;1209;-44
2022/08/07 10:35:44;;;;;;;;;;;;;;;29.78;40.83;100917.41;5071059;28;1897;-44
2022/08/07 10:38:28;;;;;;;;;;;;;;;29.94;39.66;100914.03;5070668;28;1304;-45
2022/08/07 10:41:18;;;;;;;;;;;;;;;29.90;40.34;100915.34;5093117;28;1306;-44
2022/08/07 10:44:10;;;;;;;;;;;;;;;29.97;39.50;100911.03;5052306;28;2134;-44
2022/08/07 10:46:52;;;;;;;;;;;;;;;29.97;40.38;100914.56;5071153;28;1020;-45
2022/08/07 10:49:25;;;;;;;;;;;;;;;30.14;39.85;100910.16;5070931;28;1059;-43
2022/08/07 10:52:17;;;;;;;;;;;;;;;30.11;40.39;100910.47;5070436;28;2195;-44
2022/08/07 10:54:55;;;;;;;;;;;;;;;30.22;40.53;100902.13;5072124;28;1626;-44
2022/08/07 10:57:50;;;;;;;;;;;;;;;30.31;40.01;100895.81;5072846;28;1863;-43
2022/08/07 11:00:24;;;;;;;;;;;;;;;30.34;39.77;100900.84;5074624;28;1083;-45
2022/08/07 11:03:18;;;;;;;;;;;;;;;30.43;39.94;100891.88;5074604;28;1906;-43
2022/08/07 11:06:01;;;;;;;;;;;;;;;30.31;40.69;100893.13;5071209;28;1298;-45
2022/08/07 11:08:36;;;;;;;;;;;;;;;30.32;40.23;100892.97;5072615;28;1330;-44
2022/08/07 11:11:10;;;;;;;;;;;;;;;30.35;40.65;100891.81;5073642;28;1073;-45
2022/08/07 11:13:56;;;;;;;;;;;;;;;30.29;40.93;100887.06;5068036;28;1212;-45
2022/08/07 11:16:48;;;;;;;;;;;;;;;30.39;40.83;100887.84;5086497;28;1572;-44
2022/08/07 11:19:29;;;;;;;;;;;;;;;30.38;41.02;100888.81;5074589;28;1113;-45
2022/08/07 11:22:07;;;;;;;;;;;;;;;30.46;41.68;100883.50;5069616;28;1239;-45
2022/08/07 11:24:59;;;;;;;;;;;;;;;30.45;41.71;100886.34;5073609;28;1219;-44
2022/08/07 11:27:44;;;;;;;;;;;;;;;30.33;42.07;100883.91;5073769;28;1259;-45
2022/08/07 11:30:31;;;;;;;;;;;;;;;30.29;42.32;100887.91;5074126;28;1119;-45
2022/08/07 11:33:22;;;;;;;;;;;;;;;30.35;43.83;100881.91;5068337;28;1428;-45
2022/08/07 11:36:15;;;;;;;;;;;;;;;30.93;42.27;100874.94;5074912;28;2297;-44
2022/08/07 11:38:56;;;;;;;;;;;;;;;31.30;41.93;100872.72;5073251;28;1292;-44
2022/08/07 11:41:27;;;;;;;;;;;;;;;31.31;41.55;100879.81;5073977;28;1484;-44
2022/08/07 11:44:40;;;;;;;;;;;;;;;31.27;41.23;100867.69;5069817;28;2170;-36
2022/08/07 11:47:32;;;;;;;;;;;;;;;31.39;41.95;100872.56;5059711;28;1229;-45
2022/08/07 11:50:33;;;;;;;;;;;;;;;31.26;42.42;100868.66;5073305;28;2277;-44
2022/08/07 11:53:02;;;;;;;;;;;;;;;31.23;43.37;100866.31;5068044;28;1306;-44
2022/08/07 11:55:42;;;;;;;;;;;;;;;31.26;42.83;100872.22;5066851;28;861;-44
2022/08/07 11:58:32;;;;;;;;;;;;;;;31.17;42.74;100859.75;5074210;28;2179;-44
2022/08/07 12:00:59;;;;;;;;;;;;;;;31.21;42.18;100857.56;5074763;28;1104;-45
2022/08/07 12:03:50;;;;;;;;;;;;;;;31.22;42.93;100864.66;5074703;28;1910;-45
2022/08/07 12:06:17;;;;;;;;;;;;;;;31.23;43.49;100860.94;5069205;28;1057;-45
2022/08/07 12:09:24;;;;;;;;;;;;;;;31.35;42.89;100854.22;5074254;28;2305;-44
2022/08/07 12:11:54;;;;;;;;;;;;;;;31.52;42.16;100852.44;5067168;28;1489;-44
2022/08/07 12:14:54;;;;;;;;;;;;;;;31.29;43.72;100850.34;5074584;28;1101;-44
2022/08/07 12:17:37;;;;;;;;;;;;;;;31.21;41.32;100841.44;5074538;28;1366;-42
2022/08/07 12:20:04;;;;;;;;;;;;;;;31.29;41.57;100850.34;5073139;28;1157;-44
2022/08/07 12:22:58;;;;;;;;;;;;;;;31.21;41.59;100841.44;5074329;28;1906;-44
2022/08/07 12:28:39;;;;;;;;;;;;;;;31.17;42.05;100837.38;5069872;28;2256;-45
2022/08/07 12:31:13;;;;;;;;;;;;;;;31.21;38.39;100834.19;5074144;28;1078;-43
2022/08/07 12:33:48;;;;;;;;;;;;;;;31.28;42.34;100837.06;5074284;28;1561;-42
2022/08/07 12:36:32;;;;;;;;;;;;;;;31.18;41.69;100836.38;5071264;28;1321;-44
2022/08/07 12:39:03;;;;;;;;;;;;;;;31.27;42.18;100832.69;5073915;28;1317;-42
2022/08/07 12:41:52;;;;;;;;;;;;;;;31.11;41.38;100824.59;5073945;28;1365;-42
2022/08/07 12:44:20;;;;;;;;;;;;;;;31.10;40.99;100820.25;5073918;28;1906;-43
2022/08/07 12:46:50;;;;;;;;;;;;;;;31.18;42.03;100820.25;5073937;28;1676;-43
2022/08/07 12:49:23;;;;;;;;;;;;;;;31.06;43.95;100816.19;5073746;28;1049;-44
2022/08/07 12:52:22;;;;;;;;;;;;;;;30.97;43.02;100818.03;5073712;28;2202;-44
2022/08/07 12:55:03;;;;;;;;;;;;;;;31.10;40.85;100812.97;5071050;28;1250;-42
2022/08/07 12:57:36;;;;;;;;;;;;;;;31.11;41.21;100811.13;5073397;28;1275;-41
2022/08/07 13:00:38;;;;;;;;;;;;;;;30.98;42.03;100810.78;5073213;28;2385;-40
2022/08/07 13:03:34;;;;;;;;;;;;;;;31.02;41.71;100809.44;5072177;28;1910;-43
2022/08/07 13:06:35;;;;;;;;;;;;;;;31.03;39.73;100801.22;5068804;28;2208;-41
2022/08/07 13:09:25;;;;;;;;;;;;;;;30.78;42.17;100804.81;5073522;28;1105;-41
2022/08/07 13:12:27;;;;;;;;;;;;;;;30.95;41.94;100814.63;5069529;28;2157;-42
2022/08/07 13:14:57;;;;;;;;;;;;;;;31.03;41.84;100805.75;5072975;28;1277;-42
2022/08/07 13:17:27;;;;;;;;;;;;;;;31.00;41.82;100806.94;5072654;28;1224;-43
2022/08/07 13:20:30;;;;;;;;;;;;;;;30.91;39.44;100796.28;5072700;28;1707;-43
2022/08/07 13:23:05;;;;;;;;;;;;;;;30.87;38.91;100796.63;5072806;28;1914;-40
2022/08/07 13:26:00;;;;;;;;;;;;;;;30.93;38.03;100794.25;5072266;28;2284;-39
2022/08/07 13:29:07;;;;;;;;;;;;;;;30.72;40.40;100787.50;5072055;28;1385;-43
2022/08/07 13:31:40;;;;;;;;;;;;;;;30.67;41.43;100773.69;5030054;28;1311;-40
2022/08/07 13:34:32;;;;;;;;;;;;;;;30.82;38.74;100777.44;5026373;28;1720;-39
2022/08/07 13:37:27;;;;;;;;;;;;;;;30.89;39.41;100773.06;5033245;28;1501;-39
2022/08/07 13:40:17;;;;;;;;;;;;;;;30.77;37.85;100771.72;5044695;28;1196;-36
2022/08/07 13:43:05;;;;;;;;;;;;;;;30.86;39.13;100777.94;5052438;28;2171;-40
2022/08/07 13:45:39;;;;;;;;;;;;;;;31.02;39.02;100778.00;5051633;28;1044;-41
2022/08/07 13:48:28;;;;;;;;;;;;;;;31.04;39.67;100778.66;5052580;28;2304;-42
2022/08/07 13:51:00;;;;;;;;;;;;;;;31.26;38.35;100764.56;5051276;28;1065;-41
2022/08/07 13:53:55;;;;;;;;;;;;;;;31.02;37.33;100766.41;5049428;28;2024;-41
2022/08/07 13:56:28;;;;;;;;;;;;;;;30.92;37.51;100769.22;5047470;28;1284;-36